sensor_id;sensor_type;location;lat;lon;timestamp;P1;durP1;ratioP1;P2;durP2;ratioP2
67751;SDS011;54551;51.068;5.826;2023-03-17T00:01:38;2.63;;;2.20;;
67751;SDS011;54551;51.068;5.826;2023-03-17T00:04:04;3.50;;;1.90;;
67751;SDS011;54551;51.068;5.826;2023-03-17T00:06:30;2.43;;;2.17;;
67751;SDS011;54551;51.068;5.826;2023-03-17T00:08:58;2.90;;;2.00;;
67751;SDS011;54551;51.068;5.826;2023-03-17T00:11:25;3.27;;;2.07;;
67751;SDS011;54551;51.068;5.826;2023-03-17T00:13:51;2.57;;;2.10;;
67751;SDS011;54551;51.068;5.826;2023-03-17T00:16:22;5.07;;;1.93;;
67751;SDS011;54551;51.068;5.826;2023-03-17T00:18:51;3.33;;;2.40;;
67751;SDS011;54551;51.068;5.826;2023-03-17T00:21:21;2.53;;;2.07;;
67751;SDS011;54551;51.068;5.826;2023-03-17T00:23:52;2.10;;;1.90;;
67751;SDS011;54551;51.068;5.826;2023-03-17T00:26:19;4.37;;;2.40;;
67751;SDS011;54551;51.068;5.826;2023-03-17T00:28:46;4.27;;;2.23;;
67751;SDS011;54551;51.068;5.826;2023-03-17T00:31:17;2.83;;;2.10;;
67751;SDS011;54551;51.068;5.826;2023-03-17T00:33:45;2.57;;;2.13;;
67751;SDS011;54551;51.068;5.826;2023-03-17T00:36:14;3.90;;;2.10;;
67751;SDS011;54551;51.068;5.826;2023-03-17T00:38:45;2.17;;;1.97;;
67751;SDS011;54551;51.068;5.826;2023-03-17T00:41:11;2.30;;;2.10;;
67751;SDS011;54551;51.068;5.826;2023-03-17T00:43:38;2.80;;;2.00;;
67751;SDS011;54551;51.068;5.826;2023-03-17T00:46:15;3.23;;;1.93;;
67751;SDS011;54551;51.068;5.826;2023-03-17T00:48:46;2.90;;;1.80;;
67751;SDS011;54551;51.068;5.826;2023-03-17T00:51:13;3.27;;;1.70;;
67751;SDS011;54551;51.068;5.826;2023-03-17T00:53:41;3.53;;;2.03;;
67751;SDS011;54551;51.068;5.826;2023-03-17T00:56:15;2.57;;;2.00;;
67751;SDS011;54551;51.068;5.826;2023-03-17T00:58:42;2.93;;;2.10;;
67751;SDS011;54551;51.068;5.826;2023-03-17T01:01:09;2.07;;;1.80;;
67751;SDS011;54551;51.068;5.826;2023-03-17T01:03:35;1.87;;;1.70;;
67751;SDS011;54551;51.068;5.826;2023-03-17T01:06:03;2.60;;;2.10;;
67751;SDS011;54551;51.068;5.826;2023-03-17T01:08:31;3.03;;;2.20;;
67751;SDS011;54551;51.068;5.826;2023-03-17T01:10:57;2.23;;;1.80;;
67751;SDS011;54551;51.068;5.826;2023-03-17T01:13:23;1.97;;;1.77;;
67751;SDS011;54551;51.068;5.826;2023-03-17T01:15:50;2.90;;;2.23;;
67751;SDS011;54551;51.068;5.826;2023-03-17T01:18:18;1.67;;;1.57;;
67751;SDS011;54551;51.068;5.826;2023-03-17T01:20:46;4.07;;;2.07;;
67751;SDS011;54551;51.068;5.826;2023-03-17T01:23:12;3.83;;;1.80;;
67751;SDS011;54551;51.068;5.826;2023-03-17T01:25:39;4.00;;;2.17;;
67751;SDS011;54551;51.068;5.826;2023-03-17T01:28:08;2.53;;;1.80;;
67751;SDS011;54551;51.068;5.826;2023-03-17T01:30:39;2.23;;;1.87;;
67751;SDS011;54551;51.068;5.826;2023-03-17T01:33:06;2.37;;;2.17;;
67751;SDS011;54551;51.068;5.826;2023-03-17T01:35:34;1.83;;;1.70;;
67751;SDS011;54551;51.068;5.826;2023-03-17T01:38:02;1.83;;;1.67;;
67751;SDS011;54551;51.068;5.826;2023-03-17T01:40:31;3.07;;;1.97;;
67751;SDS011;54551;51.068;5.826;2023-03-17T01:48:35;3.50;;;1.90;;
67751;SDS011;54551;51.068;5.826;2023-03-17T01:51:29;2.30;;;2.10;;
67751;SDS011;54551;51.068;5.826;2023-03-17T01:54:04;2.43;;;1.83;;
67751;SDS011;54551;51.068;5.826;2023-03-17T01:56:33;1.83;;;1.73;;
67751;SDS011;54551;51.068;5.826;2023-03-17T01:59:02;2.37;;;1.97;;
67751;SDS011;54551;51.068;5.826;2023-03-17T02:01:39;2.10;;;1.90;;
67751;SDS011;54551;51.068;5.826;2023-03-17T02:04:08;3.30;;;2.70;;
67751;SDS011;54551;51.068;5.826;2023-03-17T02:06:37;2.73;;;2.40;;
67751;SDS011;54551;51.068;5.826;2023-03-17T02:09:04;4.23;;;2.07;;
67751;SDS011;54551;51.068;5.826;2023-03-17T02:11:30;2.53;;;2.30;;
67751;SDS011;54551;51.068;5.826;2023-03-17T02:13:58;2.50;;;2.07;;
67751;SDS011;54551;51.068;5.826;2023-03-17T02:16:24;3.70;;;3.33;;
67751;SDS011;54551;51.068;5.826;2023-03-17T02:18:50;4.30;;;3.90;;
67751;SDS011;54551;51.068;5.826;2023-03-17T02:24:11;4.20;;;3.57;;
67751;SDS011;54551;51.068;5.826;2023-03-17T02:27:00;2.87;;;2.57;;
67751;SDS011;54551;51.068;5.826;2023-03-17T02:29:34;4.70;;;3.73;;
67751;SDS011;54551;51.068;5.826;2023-03-17T02:32:02;5.53;;;4.10;;
67751;SDS011;54551;51.068;5.826;2023-03-17T02:34:29;4.70;;;3.10;;
67751;SDS011;54551;51.068;5.826;2023-03-17T02:36:57;5.43;;;2.70;;
67751;SDS011;54551;51.068;5.826;2023-03-17T02:39:23;2.50;;;2.30;;
67751;SDS011;54551;51.068;5.826;2023-03-17T02:41:50;2.67;;;2.30;;
67751;SDS011;54551;51.068;5.826;2023-03-17T02:44:16;2.50;;;2.30;;
67751;SDS011;54551;51.068;5.826;2023-03-17T02:46:42;3.80;;;2.50;;
67751;SDS011;54551;51.068;5.826;2023-03-17T02:49:08;5.23;;;2.60;;
67751;SDS011;54551;51.068;5.826;2023-03-17T02:51:36;3.83;;;2.30;;
67751;SDS011;54551;51.068;5.826;2023-03-17T02:54:02;3.50;;;2.37;;
67751;SDS011;54551;51.068;5.826;2023-03-17T02:56:29;2.00;;;1.80;;
67751;SDS011;54551;51.068;5.826;2023-03-17T02:58:55;2.67;;;2.37;;
67751;SDS011;54551;51.068;5.826;2023-03-17T03:01:21;2.10;;;2.00;;
67751;SDS011;54551;51.068;5.826;2023-03-17T03:03:47;3.27;;;2.40;;
67751;SDS011;54551;51.068;5.826;2023-03-17T03:06:13;2.93;;;1.70;;
67751;SDS011;54551;51.068;5.826;2023-03-17T03:08:39;2.20;;;2.00;;
67751;SDS011;54551;51.068;5.826;2023-03-17T03:11:05;2.23;;;1.73;;
67751;SDS011;54551;51.068;5.826;2023-03-17T03:13:31;2.70;;;2.07;;
67751;SDS011;54551;51.068;5.826;2023-03-17T03:15:57;2.67;;;2.10;;
67751;SDS011;54551;51.068;5.826;2023-03-17T03:18:23;2.40;;;1.70;;
67751;SDS011;54551;51.068;5.826;2023-03-17T03:20:49;2.80;;;2.10;;
67751;SDS011;54551;51.068;5.826;2023-03-17T03:23:15;2.00;;;1.80;;
67751;SDS011;54551;51.068;5.826;2023-03-17T03:25:41;2.03;;;1.83;;
67751;SDS011;54551;51.068;5.826;2023-03-17T03:28:08;3.70;;;2.30;;
67751;SDS011;54551;51.068;5.826;2023-03-17T03:30:35;3.17;;;2.00;;
67751;SDS011;54551;51.068;5.826;2023-03-17T03:33:01;2.10;;;1.80;;
67751;SDS011;54551;51.068;5.826;2023-03-17T03:35:28;2.27;;;1.87;;
67751;SDS011;54551;51.068;5.826;2023-03-17T03:37:55;3.23;;;2.10;;
67751;SDS011;54551;51.068;5.826;2023-03-17T03:40:22;5.30;;;2.27;;
67751;SDS011;54551;51.068;5.826;2023-03-17T03:42:48;2.23;;;1.90;;
67751;SDS011;54551;51.068;5.826;2023-03-17T03:45:14;2.77;;;1.97;;
67751;SDS011;54551;51.068;5.826;2023-03-17T03:47:40;3.83;;;2.00;;
67751;SDS011;54551;51.068;5.826;2023-03-17T03:50:06;2.30;;;1.73;;
67751;SDS011;54551;51.068;5.826;2023-03-17T03:52:33;3.27;;;2.03;;
67751;SDS011;54551;51.068;5.826;2023-03-17T03:54:59;2.20;;;2.00;;
67751;SDS011;54551;51.068;5.826;2023-03-17T03:57:25;4.47;;;2.37;;
67751;SDS011;54551;51.068;5.826;2023-03-17T03:59:51;3.17;;;2.37;;
67751;SDS011;54551;51.068;5.826;2023-03-17T04:02:17;4.00;;;2.03;;
67751;SDS011;54551;51.068;5.826;2023-03-17T04:04:43;1.90;;;1.80;;
67751;SDS011;54551;51.068;5.826;2023-03-17T04:07:09;4.27;;;2.20;;
67751;SDS011;54551;51.068;5.826;2023-03-17T04:09:35;4.33;;;2.20;;
67751;SDS011;54551;51.068;5.826;2023-03-17T04:12:02;2.33;;;2.13;;
67751;SDS011;54551;51.068;5.826;2023-03-17T04:14:28;5.10;;;2.10;;
67751;SDS011;54551;51.068;5.826;2023-03-17T04:16:54;3.97;;;1.70;;
67751;SDS011;54551;51.068;5.826;2023-03-17T04:19:20;2.47;;;1.90;;
67751;SDS011;54551;51.068;5.826;2023-03-17T04:21:47;2.60;;;1.77;;
67751;SDS011;54551;51.068;5.826;2023-03-17T04:24:13;2.97;;;2.23;;
67751;SDS011;54551;51.068;5.826;2023-03-17T04:26:39;2.40;;;2.00;;
67751;SDS011;54551;51.068;5.826;2023-03-17T04:29:06;4.30;;;2.17;;
67751;SDS011;54551;51.068;5.826;2023-03-17T04:31:33;3.83;;;2.30;;
67751;SDS011;54551;51.068;5.826;2023-03-17T04:34:00;2.20;;;2.00;;
67751;SDS011;54551;51.068;5.826;2023-03-17T04:36:26;3.13;;;2.30;;
67751;SDS011;54551;51.068;5.826;2023-03-17T04:38:52;2.77;;;1.97;;
67751;SDS011;54551;51.068;5.826;2023-03-17T04:41:19;6.00;;;2.17;;
67751;SDS011;54551;51.068;5.826;2023-03-17T04:43:45;3.27;;;2.30;;
67751;SDS011;54551;51.068;5.826;2023-03-17T04:46:11;4.20;;;2.50;;
67751;SDS011;54551;51.068;5.826;2023-03-17T04:48:38;2.67;;;2.37;;
67751;SDS011;54551;51.068;5.826;2023-03-17T04:51:04;3.20;;;2.10;;
67751;SDS011;54551;51.068;5.826;2023-03-17T04:53:30;2.60;;;2.13;;
67751;SDS011;54551;51.068;5.826;2023-03-17T04:55:56;3.00;;;2.17;;
67751;SDS011;54551;51.068;5.826;2023-03-17T04:58:22;2.37;;;2.07;;
67751;SDS011;54551;51.068;5.826;2023-03-17T05:00:50;2.20;;;2.00;;
67751;SDS011;54551;51.068;5.826;2023-03-17T05:03:16;3.07;;;2.40;;
67751;SDS011;54551;51.068;5.826;2023-03-17T05:05:42;4.70;;;2.57;;
67751;SDS011;54551;51.068;5.826;2023-03-17T05:08:08;4.50;;;2.43;;
67751;SDS011;54551;51.068;5.826;2023-03-17T05:10:34;4.17;;;2.50;;
67751;SDS011;54551;51.068;5.826;2023-03-17T05:13:00;3.60;;;2.70;;
67751;SDS011;54551;51.068;5.826;2023-03-17T05:15:25;3.10;;;2.50;;
67751;SDS011;54551;51.068;5.826;2023-03-17T05:17:51;4.10;;;2.70;;
67751;SDS011;54551;51.068;5.826;2023-03-17T05:20:17;4.80;;;2.90;;
67751;SDS011;54551;51.068;5.826;2023-03-17T05:22:43;2.33;;;2.13;;
67751;SDS011;54551;51.068;5.826;2023-03-17T05:25:09;4.20;;;2.57;;
67751;SDS011;54551;51.068;5.826;2023-03-17T05:27:35;4.03;;;2.50;;
67751;SDS011;54551;51.068;5.826;2023-03-17T05:30:02;3.80;;;2.70;;
67751;SDS011;54551;51.068;5.826;2023-03-17T05:32:29;5.93;;;3.00;;
67751;SDS011;54551;51.068;5.826;2023-03-17T05:34:56;4.67;;;2.70;;
67751;SDS011;54551;51.068;5.826;2023-03-17T05:37:22;5.93;;;3.20;;
67751;SDS011;54551;51.068;5.826;2023-03-17T05:39:48;2.83;;;2.60;;
67751;SDS011;54551;51.068;5.826;2023-03-17T05:42:14;3.33;;;2.70;;
67751;SDS011;54551;51.068;5.826;2023-03-17T05:44:40;5.90;;;2.97;;
67751;SDS011;54551;51.068;5.826;2023-03-17T05:47:06;3.50;;;3.13;;
67751;SDS011;54551;51.068;5.826;2023-03-17T05:49:32;2.90;;;2.50;;
67751;SDS011;54551;51.068;5.826;2023-03-17T05:51:58;4.33;;;2.87;;
67751;SDS011;54551;51.068;5.826;2023-03-17T05:54:24;4.20;;;3.10;;
67751;SDS011;54551;51.068;5.826;2023-03-17T05:56:50;3.83;;;2.87;;
67751;SDS011;54551;51.068;5.826;2023-03-17T05:59:16;3.57;;;2.97;;
67751;SDS011;54551;51.068;5.826;2023-03-17T06:01:43;4.10;;;2.87;;
67751;SDS011;54551;51.068;5.826;2023-03-17T06:04:09;4.27;;;3.30;;
67751;SDS011;54551;51.068;5.826;2023-03-17T06:06:35;4.73;;;2.90;;
67751;SDS011;54551;51.068;5.826;2023-03-17T06:09:01;3.63;;;3.10;;
67751;SDS011;54551;51.068;5.826;2023-03-17T06:11:27;3.70;;;3.37;;
67751;SDS011;54551;51.068;5.826;2023-03-17T06:13:53;5.63;;;3.17;;
67751;SDS011;54551;51.068;5.826;2023-03-17T06:16:19;6.63;;;3.57;;
67751;SDS011;54551;51.068;5.826;2023-03-17T06:18:45;4.03;;;3.13;;
67751;SDS011;54551;51.068;5.826;2023-03-17T06:21:11;4.43;;;3.03;;
67751;SDS011;54551;51.068;5.826;2023-03-17T06:23:38;3.70;;;3.00;;
67751;SDS011;54551;51.068;5.826;2023-03-17T06:26:04;6.27;;;3.10;;
67751;SDS011;54551;51.068;5.826;2023-03-17T06:28:30;3.40;;;2.83;;
67751;SDS011;54551;51.068;5.826;2023-03-17T06:30:56;3.30;;;3.00;;
67751;SDS011;54551;51.068;5.826;2023-03-17T06:33:24;3.33;;;3.00;;
67751;SDS011;54551;51.068;5.826;2023-03-17T06:35:50;3.77;;;2.73;;
67751;SDS011;54551;51.068;5.826;2023-03-17T06:38:16;4.63;;;3.20;;
67751;SDS011;54551;51.068;5.826;2023-03-17T06:40:42;7.97;;;3.10;;
67751;SDS011;54551;51.068;5.826;2023-03-17T06:43:08;3.93;;;2.70;;
67751;SDS011;54551;51.068;5.826;2023-03-17T06:45:34;5.40;;;3.00;;
67751;SDS011;54551;51.068;5.826;2023-03-17T06:48:01;3.87;;;2.83;;
67751;SDS011;54551;51.068;5.826;2023-03-17T06:50:27;3.87;;;3.20;;
67751;SDS011;54551;51.068;5.826;2023-03-17T06:52:53;4.13;;;3.07;;
67751;SDS011;54551;51.068;5.826;2023-03-17T06:55:20;3.30;;;2.93;;
67751;SDS011;54551;51.068;5.826;2023-03-17T06:57:46;3.40;;;2.80;;
67751;SDS011;54551;51.068;5.826;2023-03-17T07:00:13;3.80;;;2.90;;
67751;SDS011;54551;51.068;5.826;2023-03-17T07:02:40;4.03;;;2.90;;
67751;SDS011;54551;51.068;5.826;2023-03-17T07:05:06;3.50;;;3.00;;
67751;SDS011;54551;51.068;5.826;2023-03-17T07:07:32;5.17;;;2.83;;
67751;SDS011;54551;51.068;5.826;2023-03-17T07:09:59;3.90;;;3.27;;
67751;SDS011;54551;51.068;5.826;2023-03-17T07:12:25;3.17;;;2.90;;
67751;SDS011;54551;51.068;5.826;2023-03-17T07:14:52;3.53;;;2.67;;
67751;SDS011;54551;51.068;5.826;2023-03-17T07:17:19;3.60;;;3.10;;
67751;SDS011;54551;51.068;5.826;2023-03-17T07:19:45;6.47;;;3.20;;
67751;SDS011;54551;51.068;5.826;2023-03-17T07:22:11;8.50;;;3.30;;
67751;SDS011;54551;51.068;5.826;2023-03-17T07:24:37;5.17;;;3.80;;
67751;SDS011;54551;51.068;5.826;2023-03-17T07:27:03;5.20;;;3.10;;
67751;SDS011;54551;51.068;5.826;2023-03-17T07:29:30;4.43;;;3.10;;
67751;SDS011;54551;51.068;5.826;2023-03-17T07:31:58;5.57;;;3.17;;
67751;SDS011;54551;51.068;5.826;2023-03-17T07:34:23;4.00;;;3.20;;
67751;SDS011;54551;51.068;5.826;2023-03-17T07:36:50;4.07;;;2.87;;
67751;SDS011;54551;51.068;5.826;2023-03-17T07:39:16;3.57;;;3.20;;
67751;SDS011;54551;51.068;5.826;2023-03-17T07:41:42;4.30;;;3.30;;
67751;SDS011;54551;51.068;5.826;2023-03-17T07:44:09;3.73;;;2.80;;
67751;SDS011;54551;51.068;5.826;2023-03-17T07:46:36;5.73;;;3.53;;
67751;SDS011;54551;51.068;5.826;2023-03-17T07:49:02;4.17;;;3.30;;
67751;SDS011;54551;51.068;5.826;2023-03-17T07:51:29;3.87;;;3.50;;
67751;SDS011;54551;51.068;5.826;2023-03-17T07:53:55;3.20;;;2.90;;
67751;SDS011;54551;51.068;5.826;2023-03-17T07:56:28;4.90;;;3.63;;
67751;SDS011;54551;51.068;5.826;2023-03-17T07:58:55;4.63;;;3.47;;
67751;SDS011;54551;51.068;5.826;2023-03-17T08:01:23;5.73;;;3.10;;
67751;SDS011;54551;51.068;5.826;2023-03-17T08:03:49;4.50;;;3.17;;
67751;SDS011;54551;51.068;5.826;2023-03-17T08:06:15;5.00;;;3.40;;
67751;SDS011;54551;51.068;5.826;2023-03-17T08:08:42;4.27;;;3.13;;
67751;SDS011;54551;51.068;5.826;2023-03-17T08:11:08;5.83;;;3.33;;
67751;SDS011;54551;51.068;5.826;2023-03-17T08:13:34;6.97;;;3.20;;
67751;SDS011;54551;51.068;5.826;2023-03-17T08:16:00;3.27;;;2.63;;
67751;SDS011;54551;51.068;5.826;2023-03-17T08:18:26;4.23;;;3.30;;
67751;SDS011;54551;51.068;5.826;2023-03-17T08:20:52;5.13;;;3.27;;
67751;SDS011;54551;51.068;5.826;2023-03-17T08:23:18;4.93;;;3.47;;
67751;SDS011;54551;51.068;5.826;2023-03-17T08:25:45;3.40;;;3.10;;
67751;SDS011;54551;51.068;5.826;2023-03-17T08:28:12;5.80;;;3.23;;
67751;SDS011;54551;51.068;5.826;2023-03-17T08:30:40;4.73;;;3.13;;
67751;SDS011;54551;51.068;5.826;2023-03-17T08:33:07;4.17;;;2.40;;
67751;SDS011;54551;51.068;5.826;2023-03-17T08:35:33;3.90;;;2.80;;
67751;SDS011;54551;51.068;5.826;2023-03-17T08:38:01;3.70;;;2.90;;
67751;SDS011;54551;51.068;5.826;2023-03-17T08:40:28;3.30;;;2.83;;
67751;SDS011;54551;51.068;5.826;2023-03-17T08:42:53;6.07;;;2.70;;
67751;SDS011;54551;51.068;5.826;2023-03-17T08:45:19;3.37;;;2.60;;
67751;SDS011;54551;51.068;5.826;2023-03-17T08:47:45;4.30;;;2.80;;
67751;SDS011;54551;51.068;5.826;2023-03-17T08:50:19;3.93;;;3.00;;
67751;SDS011;54551;51.068;5.826;2023-03-17T08:52:47;4.47;;;3.10;;
67751;SDS011;54551;51.068;5.826;2023-03-17T08:55:16;4.27;;;3.30;;
67751;SDS011;54551;51.068;5.826;2023-03-17T08:57:43;4.70;;;2.97;;
67751;SDS011;54551;51.068;5.826;2023-03-17T09:00:10;3.63;;;2.80;;
67751;SDS011;54551;51.068;5.826;2023-03-17T09:02:39;4.90;;;2.90;;
67751;SDS011;54551;51.068;5.826;2023-03-17T09:05:07;5.77;;;3.00;;
67751;SDS011;54551;51.068;5.826;2023-03-17T09:07:35;3.00;;;2.60;;
67751;SDS011;54551;51.068;5.826;2023-03-17T09:10:02;3.67;;;2.63;;
67751;SDS011;54551;51.068;5.826;2023-03-17T09:12:29;3.23;;;2.23;;
67751;SDS011;54551;51.068;5.826;2023-03-17T09:14:55;2.83;;;2.37;;
67751;SDS011;54551;51.068;5.826;2023-03-17T09:17:22;3.20;;;2.80;;
67751;SDS011;54551;51.068;5.826;2023-03-17T09:19:48;5.77;;;2.80;;
67751;SDS011;54551;51.068;5.826;2023-03-17T09:22:14;8.10;;;2.63;;
67751;SDS011;54551;51.068;5.826;2023-03-17T09:24:43;4.63;;;2.80;;
67751;SDS011;54551;51.068;5.826;2023-03-17T09:27:10;3.07;;;2.47;;
67751;SDS011;54551;51.068;5.826;2023-03-17T09:29:36;4.20;;;2.40;;
67751;SDS011;54551;51.068;5.826;2023-03-17T09:32:03;3.30;;;2.47;;
67751;SDS011;54551;51.068;5.826;2023-03-17T09:34:29;5.68;;;2.50;;
67751;SDS011;54551;51.068;5.826;2023-03-17T09:36:55;4.03;;;2.60;;
67751;SDS011;54551;51.068;5.826;2023-03-17T09:39:21;3.83;;;2.67;;
67751;SDS011;54551;51.068;5.826;2023-03-17T09:49:55;3.37;;;2.60;;
67751;SDS011;54551;51.068;5.826;2023-03-17T09:52:25;5.72;;;2.65;;
67751;SDS011;54551;51.068;5.826;2023-03-17T09:54:54;4.00;;;2.30;;
67751;SDS011;54551;51.068;5.826;2023-03-17T09:57:42;3.25;;;2.13;;
67751;SDS011;54551;51.068;5.826;2023-03-17T10:00:12;4.88;;;2.10;;
67751;SDS011;54551;51.068;5.826;2023-03-17T10:02:41;7.40;;;2.53;;
67751;SDS011;54551;51.068;5.826;2023-03-17T10:05:18;6.10;;;2.88;;
67751;SDS011;54551;51.068;5.826;2023-03-17T10:10:47;4.07;;;2.80;;
67751;SDS011;54551;51.068;5.826;2023-03-17T10:23:02;5.55;;;2.55;;
67751;SDS011;54551;51.068;5.826;2023-03-17T10:25:20;4.83;;;2.60;;
67751;SDS011;54551;51.068;5.826;2023-03-17T10:28:01;5.83;;;2.40;;
67751;SDS011;54551;51.068;5.826;2023-03-17T10:30:36;5.83;;;2.37;;
67751;SDS011;54551;51.068;5.826;2023-03-17T10:33:04;4.73;;;3.00;;
67751;SDS011;54551;51.068;5.826;2023-03-17T10:35:34;6.47;;;2.40;;
67751;SDS011;54551;51.068;5.826;2023-03-17T10:38:13;4.37;;;2.70;;
67751;SDS011;54551;51.068;5.826;2023-03-17T10:40:40;3.40;;;2.33;;
67751;SDS011;54551;51.068;5.826;2023-03-17T10:43:09;3.90;;;2.73;;
67751;SDS011;54551;51.068;5.826;2023-03-17T10:45:45;4.30;;;2.60;;
67751;SDS011;54551;51.068;5.826;2023-03-17T10:48:34;5.20;;;2.70;;
67751;SDS011;54551;51.068;5.826;2023-03-17T10:51:04;3.67;;;2.37;;
67751;SDS011;54551;51.068;5.826;2023-03-17T10:53:40;3.23;;;2.50;;
67751;SDS011;54551;51.068;5.826;2023-03-17T10:56:10;2.60;;;2.23;;
67751;SDS011;54551;51.068;5.826;2023-03-17T10:58:46;5.80;;;2.90;;
67751;SDS011;54551;51.068;5.826;2023-03-17T11:01:21;3.53;;;2.80;;
67751;SDS011;54551;51.068;5.826;2023-03-17T11:03:48;4.07;;;2.87;;
67751;SDS011;54551;51.068;5.826;2023-03-17T11:06:15;3.77;;;2.57;;
67751;SDS011;54551;51.068;5.826;2023-03-17T11:08:50;3.23;;;2.60;;
67751;SDS011;54551;51.068;5.826;2023-03-17T11:14:05;4.57;;;2.50;;
67751;SDS011;54551;51.068;5.826;2023-03-17T11:17:12;4.47;;;2.70;;
67751;SDS011;54551;51.068;5.826;2023-03-17T11:19:53;3.67;;;2.65;;
67751;SDS011;54551;51.068;5.826;2023-03-17T11:22:40;2.90;;;2.47;;
67751;SDS011;54551;51.068;5.826;2023-03-17T11:27:57;7.65;;;2.80;;
67751;SDS011;54551;51.068;5.826;2023-03-17T11:30:39;2.53;;;2.00;;
67751;SDS011;54551;51.068;5.826;2023-03-17T11:41:24;2.65;;;2.17;;
67751;SDS011;54551;51.068;5.826;2023-03-17T11:44:18;3.75;;;2.35;;
67751;SDS011;54551;51.068;5.826;2023-03-17T11:50:19;3.00;;;2.03;;
67751;SDS011;54551;51.068;5.826;2023-03-17T11:58:53;3.75;;;2.17;;
67751;SDS011;54551;51.068;5.826;2023-03-17T12:01:27;3.40;;;2.40;;
67751;SDS011;54551;51.068;5.826;2023-03-17T12:06:51;3.22;;;2.20;;
67751;SDS011;54551;51.068;5.826;2023-03-17T12:12:02;3.40;;;2.30;;
67751;SDS011;54551;51.068;5.826;2023-03-17T12:14:31;3.00;;;2.33;;
67751;SDS011;54551;51.068;5.826;2023-03-17T12:17:19;3.42;;;2.08;;
67751;SDS011;54551;51.068;5.826;2023-03-17T12:19:55;2.47;;;2.10;;
67751;SDS011;54551;51.068;5.826;2023-03-17T12:25:23;3.38;;;2.10;;
67751;SDS011;54551;51.068;5.826;2023-03-17T12:28:07;5.32;;;2.63;;
67751;SDS011;54551;51.068;5.826;2023-03-17T12:33:23;2.87;;;2.17;;
67751;SDS011;54551;51.068;5.826;2023-03-17T12:35:55;3.35;;;2.05;;
67751;SDS011;54551;51.068;5.826;2023-03-17T12:39:05;3.70;;;2.42;;
67751;SDS011;54551;51.068;5.826;2023-03-17T12:49:55;2.92;;;1.98;;
67751;SDS011;54551;51.068;5.826;2023-03-17T12:55:13;4.40;;;2.35;;
67751;SDS011;54551;51.068;5.826;2023-03-17T12:57:42;5.68;;;3.08;;
67751;SDS011;54551;51.068;5.826;2023-03-17T13:00:15;3.95;;;2.65;;
67751;SDS011;54551;51.068;5.826;2023-03-17T13:03:35;3.75;;;2.70;;
67751;SDS011;54551;51.068;5.826;2023-03-17T13:05:38;5.43;;;2.63;;
67751;SDS011;54551;51.068;5.826;2023-03-17T13:08:10;5.33;;;2.43;;
67751;SDS011;54551;51.068;5.826;2023-03-17T13:13:10;5.80;;;2.97;;
67751;SDS011;54551;51.068;5.826;2023-03-17T13:15:51;11.63;;;3.00;;
67751;SDS011;54551;51.068;5.826;2023-03-17T13:20:51;8.70;;;2.70;;
67751;SDS011;54551;51.068;5.826;2023-03-17T13:26:12;8.68;;;2.55;;
67751;SDS011;54551;51.068;5.826;2023-03-17T13:28:43;4.60;;;2.55;;
67751;SDS011;54551;51.068;5.826;2023-03-17T13:34:17;6.38;;;2.53;;
67751;SDS011;54551;51.068;5.826;2023-03-17T13:39:48;5.93;;;2.63;;
67751;SDS011;54551;51.068;5.826;2023-03-17T13:42:56;3.83;;;2.58;;
67751;SDS011;54551;51.068;5.826;2023-03-17T13:45:45;4.97;;;2.53;;
67751;SDS011;54551;51.068;5.826;2023-03-17T13:48:55;5.75;;;2.83;;
67751;SDS011;54551;51.068;5.826;2023-03-17T13:53:40;2.70;;;2.15;;
67751;SDS011;54551;51.068;5.826;2023-03-17T13:58:51;3.70;;;2.20;;
67751;SDS011;54551;51.068;5.826;2023-03-17T14:01:17;3.97;;;2.28;;
67751;SDS011;54551;51.068;5.826;2023-03-17T14:03:46;2.33;;;1.92;;
67751;SDS011;54551;51.068;5.826;2023-03-17T14:06:14;2.50;;;2.15;;
67751;SDS011;54551;51.068;5.826;2023-03-17T14:08:47;2.97;;;2.08;;
67751;SDS011;54551;51.068;5.826;2023-03-17T14:16:54;3.83;;;2.00;;
67751;SDS011;54551;51.068;5.826;2023-03-17T14:19:26;3.75;;;2.17;;
67751;SDS011;54551;51.068;5.826;2023-03-17T14:21:53;2.47;;;2.10;;
67751;SDS011;54551;51.068;5.826;2023-03-17T14:24:32;2.67;;;1.90;;
67751;SDS011;54551;51.068;5.826;2023-03-17T14:27:05;4.22;;;2.03;;
67751;SDS011;54551;51.068;5.826;2023-03-17T14:29:34;3.25;;;2.30;;
67751;SDS011;54551;51.068;5.826;2023-03-17T14:32:20;3.35;;;2.17;;
67751;SDS011;54551;51.068;5.826;2023-03-17T14:34:57;4.78;;;2.05;;
67751;SDS011;54551;51.068;5.826;2023-03-17T14:37:24;4.93;;;1.80;;
67751;SDS011;54551;51.068;5.826;2023-03-17T14:39:53;3.95;;;2.20;;
67751;SDS011;54551;51.068;5.826;2023-03-17T14:42:30;4.07;;;2.05;;
67751;SDS011;54551;51.068;5.826;2023-03-17T14:45:03;3.65;;;2.03;;
67751;SDS011;54551;51.068;5.826;2023-03-17T14:47:36;3.40;;;1.90;;
67751;SDS011;54551;51.068;5.826;2023-03-17T14:50:04;6.07;;;1.80;;
67751;SDS011;54551;51.068;5.826;2023-03-17T14:52:41;4.20;;;2.10;;
67751;SDS011;54551;51.068;5.826;2023-03-17T14:55:11;2.57;;;2.00;;
67751;SDS011;54551;51.068;5.826;2023-03-17T14:57:38;3.47;;;2.17;;
67751;SDS011;54551;51.068;5.826;2023-03-17T15:02:57;3.50;;;1.77;;
67751;SDS011;54551;51.068;5.826;2023-03-17T15:05:40;2.70;;;1.93;;
67751;SDS011;54551;51.068;5.826;2023-03-17T15:11:01;3.00;;;2.10;;
67751;SDS011;54551;51.068;5.826;2023-03-17T15:13:32;2.67;;;2.07;;
67751;SDS011;54551;51.068;5.826;2023-03-17T15:16:04;2.97;;;2.10;;
67751;SDS011;54551;51.068;5.826;2023-03-17T15:18:31;2.67;;;2.00;;
67751;SDS011;54551;51.068;5.826;2023-03-17T15:20:57;6.67;;;2.47;;
67751;SDS011;54551;51.068;5.826;2023-03-17T15:23:26;2.83;;;1.80;;
67751;SDS011;54551;51.068;5.826;2023-03-17T15:25:54;3.13;;;1.83;;
67751;SDS011;54551;51.068;5.826;2023-03-17T15:28:22;5.67;;;1.87;;
67751;SDS011;54551;51.068;5.826;2023-03-17T15:30:51;5.37;;;2.17;;
67751;SDS011;54551;51.068;5.826;2023-03-17T15:33:32;2.50;;;1.83;;
67751;SDS011;54551;51.068;5.826;2023-03-17T15:36:00;2.77;;;1.47;;
67751;SDS011;54551;51.068;5.826;2023-03-17T15:38:26;5.60;;;2.30;;
67751;SDS011;54551;51.068;5.826;2023-03-17T15:40:53;5.17;;;2.30;;
67751;SDS011;54551;51.068;5.826;2023-03-17T15:43:20;2.57;;;1.87;;
67751;SDS011;54551;51.068;5.826;2023-03-17T15:45:47;3.20;;;1.70;;
67751;SDS011;54551;51.068;5.826;2023-03-17T15:48:24;2.87;;;1.87;;
67751;SDS011;54551;51.068;5.826;2023-03-17T15:50:52;4.57;;;1.90;;
67751;SDS011;54551;51.068;5.826;2023-03-17T15:53:19;4.03;;;2.27;;
67751;SDS011;54551;51.068;5.826;2023-03-17T15:55:45;5.17;;;1.87;;
67751;SDS011;54551;51.068;5.826;2023-03-17T15:58:12;4.00;;;2.10;;
67751;SDS011;54551;51.068;5.826;2023-03-17T16:00:39;5.40;;;2.00;;
67751;SDS011;54551;51.068;5.826;2023-03-17T16:05:40;4.33;;;2.27;;
67751;SDS011;54551;51.068;5.826;2023-03-17T16:08:14;3.50;;;1.47;;
67751;SDS011;54551;51.068;5.826;2023-03-17T16:10:42;4.77;;;1.90;;
67751;SDS011;54551;51.068;5.826;2023-03-17T16:13:09;5.10;;;2.03;;
67751;SDS011;54551;51.068;5.826;2023-03-17T16:15:57;4.10;;;1.83;;
67751;SDS011;54551;51.068;5.826;2023-03-17T16:18:28;4.60;;;1.80;;
67751;SDS011;54551;51.068;5.826;2023-03-17T16:20:58;4.97;;;1.80;;
67751;SDS011;54551;51.068;5.826;2023-03-17T16:23:26;3.07;;;1.67;;
67751;SDS011;54551;51.068;5.826;2023-03-17T16:25:57;2.73;;;1.70;;
67751;SDS011;54551;51.068;5.826;2023-03-17T16:28:27;3.50;;;2.00;;
67751;SDS011;54551;51.068;5.826;2023-03-17T16:30:56;3.27;;;2.00;;
67751;SDS011;54551;51.068;5.826;2023-03-17T16:33:24;3.27;;;2.17;;
67751;SDS011;54551;51.068;5.826;2023-03-17T16:35:56;3.80;;;2.20;;
67751;SDS011;54551;51.068;5.826;2023-03-17T16:38:24;5.13;;;2.43;;
67751;SDS011;54551;51.068;5.826;2023-03-17T16:40:53;4.10;;;2.10;;
67751;SDS011;54551;51.068;5.826;2023-03-17T16:43:28;3.67;;;2.00;;
67751;SDS011;54551;51.068;5.826;2023-03-17T16:45:56;4.03;;;2.20;;
67751;SDS011;54551;51.068;5.826;2023-03-17T16:48:24;3.73;;;1.93;;